Hlavní strana
METAR-TAF:

METAR-TAF

Letiště :

Sparta Community Airport (Hunter Field)

Sparta, Illinois, Spojené státy americké

zeměpisná šířka: 38-08-56N, zeměpisná délka: 089-41-55W, výška: 164 m

Aktuální stav počasí

Zpráva byla vytvořena před 26 minutami, v 04:35 UTC
Východojihovýchodní vítr 3 kt
Teplota 2°C
Vlhkost vzduchu 93%
Tlak 1017 hPa
Viditelnost: 16.1 km
Jasno

METAR: KSAR 200435Z AUTO 11003KT 10SM CLR 02/01 A3003 RMK AO2 T00170011

Čas: 23:01 (05:01 UTC)


TAF: chybějící

Stav a předpovědi počasí z více než 4 000 letišť (zprávy METAR a TAF).

Červené a žluté tečky na mapě představují dostupné meteorologické stanice.

Když kurzor umístíte na tečku, zobrazí se název stanice.

Pak kliknutím zobrazíte stav a předpověď počasí.

Chcete-li změnit mapu, kliknutím na zelené tlačítko se znaménkem +mapu přiblížíte, kliknutím na zelené tlačítko se znaménkem – mapu oddálíte a kliknutím na zelené šipky přejdete na sousední mapy.


METAR-TAF: